• Join FlightAware (Why Join?)
  • Login
  • US Flag 
12:23AM EDT


 

Airport Tracker/Info


-or-


 

Live Flight TrackerFlight Track Log ✈ SWA1787 ✈ 18-Apr-2014 ✈ KBWI - KDTW

Flight Track Log - Related Links

Times and Time Zones

All times are in EDT time to prevent confusion due to time zone crossing. See the SWA1787 flight status page for this flight to view local times or setup timezone preferences in your user account.

Time Position Orientation Groundspeed Altitude Reporting Facility
EDT Latitude Longitude Course Direction KTS MPH feet Rate Location/Type
03:30PM 39.1667 -76.7333 303° West 263 303 4,500  Level Potomac TRACON
03:31PM 39.1833 -76.8167 284° West 270 311 7,600 3,300 Climbing Potomac TRACON
03:32PM 39.2000 -76.9167 282° West 255 293 11,200 2,340 Climbing Potomac TRACON
03:33PM 39.2303 -76.9983 296° West 294 338 12,400 1,860 Climbing Washington Center
03:34PM 39.2516 -77.1849 322° Northwest  Level FlightAware Approximate
03:34PM 39.2728 -77.1064 297° West 332 382 14,900  Level Washington Center
03:35PM 39.3150 -77.2200 296° West 338 389 17,400 2,220 Climbing Washington Center
03:36PM 39.3594 -77.3336 297° West 343 395 19,500 1,680 Climbing Washington Center
03:37PM 39.4053 -77.4608 295° West 353 406 20,900 1,860 Climbing Washington Center
03:38PM 39.4475 -77.5722 296° West 363 418 23,200 1,560 Climbing Washington Center
03:39PM 39.4911 -77.7025 293° West 373 429 24,000 240 Climbing Washington Center
03:41PM 39.5756 -77.9875 291° West 398 458 24,000  Level Cleveland Center
03:42PM 39.6153 -78.1214 291° West 399 459 24,000  Level Cleveland Center
03:43PM 39.6542 -78.2525 291° West 398 458 24,000  Level Cleveland Center
03:44PM 39.6919 -78.3822 291° West 392 451 24,000  Level Cleveland Center
03:45PM 39.7375 -78.5344 291° West 383 441 24,000  Level Cleveland Center
03:46PM 39.7744 -78.6631 291° West 382 440 24,000  Level Cleveland Center
03:47PM 39.8253 -78.7839 299° West 383 441 24,000  Level Cleveland Center
03:48PM 39.8819 -78.8986 303° West 380 437 24,000  Level Cleveland Center
03:49PM 39.9400 -79.0222 302° West 386 444 24,000  Level Cleveland Center
03:50PM 39.9975 -79.1417 302° West 391 450 24,000  Level Cleveland Center
03:51PM 40.0636 -79.2828 302° West 390 449 24,000  Level Cleveland Center
03:52PM 40.1206 -79.4028 302° West 386 444 24,000  Level Cleveland Center
03:53PM 40.1753 -79.5200 301° West 383 441 24,000  Level Cleveland Center
03:54PM 40.2292 -79.6358 301° West 376 433 24,000  Level Cleveland Center
03:55PM 40.2831 -79.7511 302° West 375 432 24,000  Level Cleveland Center
03:56PM 40.3364 -79.8675 301° West 375 432 24,000  Level Cleveland Center
03:59PM 40.4544 -80.1203 302° West 375 432 24,000  Level Cleveland Center
04:00PM 40.5083 -80.2394 301° West 378 435 24,000  Level Cleveland Center
04:01PM 40.5592 -80.3508 301° West 378 435 24,000  Level Cleveland Center
04:02PM 40.6161 -80.4767 301° West 376 433 24,000  Level Cleveland Center
04:03PM 40.6786 -80.6150 301° West 375 432 24,000  Level Cleveland Center
04:04PM 40.7281 -80.7247 301° West 375 432 24,000  Level Cleveland Center
04:05PM 40.7811 -80.8433 301° West 375 432 24,000  Level Cleveland Center
04:06PM 40.8336 -80.9608 301° West 374 430 24,000  Level Cleveland Center
04:07PM 40.8914 -81.0908 300° West 374 430 24,000  Level Cleveland Center
04:08PM 40.9433 -81.2086 300° West 372 428 24,000  Level Cleveland Center
04:09PM 40.9956 -81.3269 300° West 371 427 24,000  Level Cleveland Center
04:10PM 41.0550 -81.4633 300° West 366 421 24,000  Level Cleveland Center
04:11PM 41.1058 -81.5789 300° West 364 419 24,000  Level Cleveland Center
04:12PM 41.1481 -81.6769 300° West 358 412 24,000  Level Cleveland Center
04:14PM 41.2556 -81.9253 300° West 356 410 24,000  Level Cleveland Center
04:15PM 41.3044 -82.0378 300° West 355 409 24,000  Level Cleveland Center
04:16PM 41.3544 -82.1536 300° West 352 405 24,000 -300 Level Cleveland Center
04:17PM 41.4161 -82.2589 308° West 353 406 23,400 -1,320 Descending Cleveland Center
04:18PM 41.4767 -82.3592 309° West 345 397 21,300 -1,980 Descending Cleveland Center
04:19PM 41.5342 -82.4556 309° West 333 383 19,300 -2,040 Descending Cleveland Center
04:20PM 41.5883 -82.5525 307° West 316 364 17,500 -2,160 Descending Cleveland Center
04:20PM 41.5992 -82.5644 320° Northwest 320 368 17,100 -2,280 Descending Cleveland Center
04:21PM 41.6531 -82.6558 308° West 320 368 14,800 -2,280 Descending Cleveland Center
04:22PM 41.7003 -82.7400 307° West 316 364 12,900 -2,160 Descending Cleveland Center
04:22PM 41.7069 -82.7475 320° Northwest 318 366 12,600 -900 Descending Cleveland Center
04:23PM 41.7614 -82.8236 314° West 312 359 12,000 -600 Descending Cleveland Center
04:23PM 41.7664 -82.8303 315° West 312 359 12,000  Level Cleveland Center
04:24PM 41.8267 -82.9022 318° Northwest 305 351 12,000  Level Cleveland Center
04:24PM 41.8306 -82.9044 337° Northwest 309 356 12,000  Level Cleveland Center
04:25PM 41.8903 -82.9778 318° Northwest 299 344 12,000  Level Cleveland Center
04:25PM 41.9044 -82.9939 320° Northwest 302 348 12,000  Level Cleveland Center
04:26PM 41.9533 -83.0564 316° Northwest 283 326 12,000  Level Cleveland Center
04:26PM 41.9636 -83.0639 332° Northwest 288 331 12,000  Level Cleveland Center
04:27PM 42.0131 -83.1264 317° Northwest 272 313 12,000  Level Cleveland Center
04:28PM 42.0192 -83.1314 329° Northwest 272 313 12,000  Level Cleveland Center
04:28PM 42.0628 -83.1867 317° Northwest 221 254 12,000  Level Cleveland Center
04:29PM 42.0686 -83.1906 334° Northwest 240 276 12,000 -300 Level Cleveland Center
04:29PM 42.1161 -83.2306 328° Northwest 232 267 11,700 -600 Descending Cleveland Center
04:30PM 42.1267 -83.2286 North 232 267 11,400 -1,680 Descending Cleveland Center
04:30PM 42.1828 -83.2061 17° North 275 316 10,000 -1,800 Descending Cleveland Center
04:31PM 42.2011 -83.1925 29° Northeast 270 311 9,600 -1,140 Descending Cleveland Center
04:31PM 42.2533 -83.1622 23° Northeast 259 298 8,900 -1,020 Descending Cleveland Center
04:32PM 42.2669 -83.1550 21° North 264 304 8,600 -1,200 Descending Cleveland Center
04:32PM 42.3169 -83.1258 23° Northeast 249 287 7,700 -1,200 Descending Cleveland Center
04:33PM 42.3289 -83.1194 22° Northeast 251 289 7,400 -1,320 Descending Cleveland Center
04:33PM 42.3692 -83.1528 329° Northwest 190 219 6,400 -1,260 Descending Cleveland Center
04:34PM 42.3744 -83.1608 312° West 203 234 6,100 -2,220 Descending Cleveland Center
04:34PM 42.3731 -83.2128 268° West 185 213 4,200 -2,160 Descending Cleveland Center
04:35PM 42.3700 -83.2197 239° Southwest 187 215 3,900 -900 Descending Cleveland Center
04:35PM 42.3303 -83.2519 211° Southwest 180 207 3,300 -780 Descending Cleveland Center
04:36PM 42.3258 -83.2564 216° Southwest 187 215 3,100 -1,020 Descending Cleveland Center
04:36PM 42.2900 -83.2831 209° Southwest 165 190 2,300 -1,080 Descending Cleveland Center
04:37PM 42.2781 -83.2917 208° Southwest 172 198 2,000 -900 Descending Cleveland Center
04:37PM 42.2503 -83.3114 208° Southwest 156 180 1,400 -780 Descending Cleveland Center
04:38PM 42.2394 -83.3192 208° Southwest 162 186 1,200 -600 Descending Cleveland Center